createdAt,value
2022-09-26T00:02:26.277Z,11.69
2022-09-26T00:05:53.840Z,11.66
2022-09-26T00:09:22.117Z,11.64
2022-09-26T00:12:51.494Z,11.60
2022-09-26T00:16:19.855Z,11.57
2022-09-26T00:19:46.742Z,11.56
2022-09-26T00:23:14.962Z,11.55
2022-09-26T00:26:42.436Z,11.56
2022-09-26T00:30:16.687Z,11.58
2022-09-26T00:33:44.944Z,11.63
2022-09-26T00:37:11.913Z,11.65
2022-09-26T00:40:45.953Z,11.67
2022-09-26T00:44:46.366Z,11.68
2022-09-26T00:48:14.858Z,11.69
2022-09-26T00:51:48.123Z,11.69
2022-09-26T00:55:19.417Z,11.67
2022-09-26T00:58:49.687Z,11.62
2022-09-26T01:02:21.321Z,11.56
2022-09-26T01:05:50.397Z,11.52
2022-09-26T01:09:22.451Z,11.49
2022-09-26T01:12:49.881Z,11.46
2022-09-26T01:16:17.103Z,11.43
2022-09-26T01:19:51.365Z,11.43
2022-09-26T01:23:58.631Z,11.41
2022-09-26T01:27:54.762Z,11.40
2022-09-26T01:31:31.166Z,11.40
2022-09-26T01:35:09.649Z,11.43
2022-09-26T01:38:45.758Z,11.48
2022-09-26T01:42:26.432Z,11.55
2022-09-26T01:46:01.208Z,11.60
2022-09-26T01:49:35.308Z,11.64
2022-09-26T01:53:08.196Z,11.67
2022-09-26T01:56:42.595Z,11.68
2022-09-26T02:00:14.091Z,11.68
2022-09-26T02:03:48.120Z,11.67
2022-09-26T02:07:19.527Z,11.66
2022-09-26T02:10:51.474Z,11.62
2022-09-26T02:14:23.163Z,11.59
2022-09-26T02:17:56.468Z,11.55
2022-09-26T02:21:26.891Z,11.55
2022-09-26T02:24:54.817Z,11.55
2022-09-26T02:28:22.477Z,11.56
2022-09-26T02:31:58.714Z,11.59
2022-09-26T02:35:44.430Z,11.64
2022-09-26T02:39:15.318Z,11.68
2022-09-26T02:42:58.638Z,11.72
2022-09-26T02:46:55.202Z,11.75
2022-09-26T02:50:37.759Z,11.78
2022-09-26T02:54:17.137Z,11.77
2022-09-26T02:57:56.716Z,11.76
2022-09-26T03:01:29.439Z,11.74
2022-09-26T03:05:02.899Z,11.69
2022-09-26T03:08:31.115Z,11.64
2022-09-26T03:12:00.171Z,11.58
2022-09-26T03:15:29.998Z,11.52
2022-09-26T03:19:00.113Z,11.46
2022-09-26T03:22:28.552Z,11.43
2022-09-26T03:26:04.210Z,11.39
2022-09-26T03:29:33.205Z,11.36
2022-09-26T03:33:00.260Z,11.35
2022-09-26T03:36:27.578Z,11.35
2022-09-26T03:39:54.529Z,11.35
2022-09-26T03:43:44.070Z,11.37
2022-09-26T03:47:12.818Z,11.38
2022-09-26T03:50:41.257Z,11.38
2022-09-26T03:54:08.087Z,11.38
2022-09-26T03:57:34.941Z,11.38
2022-09-26T04:01:14.651Z,11.37
2022-09-26T04:04:41.486Z,11.35
2022-09-26T04:08:10.396Z,11.33
2022-09-26T04:11:38.105Z,11.32
2022-09-26T04:15:05.597Z,11.29
2022-09-26T04:18:35.854Z,11.26
2022-09-26T04:22:02.906Z,11.24
2022-09-26T04:25:33.240Z,11.23
2022-09-26T04:29:01.642Z,11.22
2022-09-26T04:32:48.497Z,11.23
2022-09-26T04:36:17.391Z,11.25
2022-09-26T04:39:45.684Z,11.26
2022-09-26T04:43:13.635Z,11.29
2022-09-26T04:46:40.677Z,11.30
2022-09-26T04:50:12.582Z,11.30
2022-09-26T04:53:40.561Z,11.30
2022-09-26T04:57:22.243Z,11.28
2022-09-26T05:00:50.363Z,11.26
2022-09-26T05:04:27.879Z,11.22
2022-09-26T05:07:55.772Z,11.18
2022-09-26T05:11:23.036Z,11.15
2022-09-26T05:14:52.223Z,11.13
2022-09-26T05:18:23.578Z,11.12
2022-09-26T05:21:50.340Z,11.11
2022-09-26T05:25:35.272Z,11.13
2022-09-26T05:29:08.589Z,11.16
2022-09-26T05:32:46.369Z,11.20
2022-09-26T05:36:14.033Z,11.25
2022-09-26T05:39:58.334Z,11.32
2022-09-26T05:43:27.702Z,11.40
2022-09-26T05:46:57.610Z,11.49
2022-09-26T05:50:27.545Z,11.56
2022-09-26T05:53:57.718Z,11.64
2022-09-26T05:57:26.007Z,11.67
2022-09-26T06:01:02.101Z,11.67
2022-09-26T06:04:30.691Z,11.68
2022-09-26T06:08:17.674Z,11.65
2022-09-26T06:11:49.585Z,11.63
2022-09-26T06:15:17.626Z,11.60
2022-09-26T06:18:47.310Z,11.56
2022-09-26T06:22:17.780Z,11.54
2022-09-26T06:25:45.436Z,11.54
2022-09-26T06:29:15.400Z,11.55
2022-09-26T06:32:47.588Z,11.60
2022-09-26T06:36:22.164Z,11.66
2022-09-26T06:39:57.057Z,11.75
2022-09-26T06:43:29.068Z,11.82
2022-09-26T06:47:23.711Z,11.91
2022-09-26T06:51:06.812Z,12.05
2022-09-26T06:54:39.495Z,12.17
2022-09-26T06:58:11.200Z,12.24
2022-09-26T07:01:55.615Z,12.31
2022-09-26T07:06:14.124Z,12.39
2022-09-26T07:09:43.056Z,12.49
2022-09-26T07:13:17.352Z,12.55
2022-09-26T07:16:44.811Z,12.60
2022-09-26T07:20:46.990Z,12.64
2022-09-26T07:24:32.535Z,12.67
2022-09-26T07:28:00.852Z,12.73
2022-09-26T07:31:37.253Z,12.80
2022-09-26T07:35:10.001Z,12.89
2022-09-26T07:38:37.151Z,12.99
2022-09-26T07:42:04.885Z,13.10
2022-09-26T07:45:49.351Z,13.22
2022-09-26T07:49:33.782Z,13.36
2022-09-26T07:53:00.560Z,13.52
2022-09-26T07:56:27.432Z,13.64
2022-09-26T08:00:22.042Z,13.74
2022-09-26T08:03:58.482Z,13.82
2022-09-26T08:07:30.517Z,13.90
2022-09-26T08:11:04.606Z,14.00
2022-09-26T08:14:50.441Z,14.09
2022-09-26T08:18:22.183Z,14.15
2022-09-26T08:21:49.460Z,14.23
2022-09-26T08:25:18.424Z,14.31
2022-09-26T08:29:03.952Z,14.44
2022-09-26T08:32:31.958Z,14.50
2022-09-26T08:36:03.816Z,14.49
2022-09-26T08:39:48.328Z,14.54
2022-09-26T08:44:15.054Z,14.67
2022-09-26T08:48:33.287Z,14.82
2022-09-26T08:52:31.420Z,14.94
2022-09-26T08:56:02.661Z,15.08
2022-09-26T08:59:35.049Z,15.16
2022-09-26T09:03:16.105Z,15.30
2022-09-26T09:06:43.545Z,15.46
2022-09-26T09:10:18.813Z,15.52
2022-09-26T09:14:12.310Z,15.52
2022-09-26T09:18:29.470Z,15.56
2022-09-26T09:22:41.927Z,15.66
2022-09-26T09:30:21.282Z,15.86
2022-09-26T09:34:10.551Z,16.00
2022-09-26T09:38:07.273Z,16.15
2022-09-26T09:41:59.815Z,16.25
2022-09-26T09:45:37.907Z,16.37
2022-09-26T09:49:21.093Z,16.49
2022-09-26T09:52:57.168Z,16.59
2022-09-26T09:56:39.389Z,16.71
2022-09-26T10:00:15.993Z,16.82
2022-09-26T10:03:56.511Z,16.93
2022-09-26T10:07:23.484Z,17.14
2022-09-26T10:11:23.664Z,17.39
2022-09-26T10:15:00.037Z,17.58
2022-09-26T10:19:03.710Z,17.63
2022-09-26T10:22:37.773Z,17.64
2022-09-26T10:26:08.408Z,17.55
2022-09-26T10:29:39.617Z,17.45
2022-09-26T10:33:07.339Z,17.46
2022-09-26T10:36:49.953Z,17.51
2022-09-26T10:40:53.456Z,17.64
2022-09-26T10:44:28.545Z,17.73
2022-09-26T10:48:06.410Z,17.81
2022-09-26T10:52:09.000Z,17.87
2022-09-26T10:55:44.248Z,18.02
2022-09-26T10:59:14.610Z,18.06
2022-09-26T11:02:47.193Z,18.05
2022-09-26T11:06:28.308Z,17.98
2022-09-26T11:10:07.814Z,17.93
2022-09-26T11:13:51.031Z,17.85
2022-09-26T11:17:19.622Z,17.81
2022-09-26T11:20:53.911Z,17.84
2022-09-26T11:24:28.066Z,17.95
2022-09-26T11:28:07.640Z,17.99
2022-09-26T11:32:00.370Z,18.12
2022-09-26T11:36:12.236Z,18.20
2022-09-26T11:40:09.603Z,18.34
2022-09-26T11:43:54.552Z,18.66
2022-09-26T11:48:20.280Z,18.97
2022-09-26T11:52:31.764Z,19.00
2022-09-26T11:56:18.325Z,18.87
2022-09-26T12:00:06.512Z,18.83
2022-09-26T12:04:06.723Z,18.77
2022-09-26T12:07:49.611Z,18.59
2022-09-26T12:11:27.893Z,18.64
2022-09-26T12:15:15.172Z,18.96
2022-09-26T12:18:53.268Z,19.26
2022-09-26T12:22:32.188Z,19.58
2022-09-26T12:26:10.038Z,19.89
2022-09-26T12:29:46.991Z,20.19
2022-09-26T12:33:36.356Z,20.48
2022-09-26T12:37:32.488Z,20.65
2022-09-26T12:41:14.631Z,20.77
2022-09-26T12:44:58.018Z,20.72
2022-09-26T12:48:50.537Z,20.85
2022-09-26T12:52:29.156Z,20.90
2022-09-26T12:56:07.845Z,20.72
2022-09-26T13:00:11.244Z,20.46
2022-09-26T13:03:56.342Z,20.17
2022-09-26T13:07:36.979Z,20.07
2022-09-26T13:11:16.234Z,20.19
2022-09-26T13:15:05.300Z,20.49
2022-09-26T13:18:40.601Z,20.50
2022-09-26T13:22:21.333Z,20.48
2022-09-26T13:25:54.779Z,20.36
2022-09-26T13:29:28.444Z,20.27
2022-09-26T13:33:02.400Z,20.12
2022-09-26T13:36:31.465Z,19.95
2022-09-26T13:40:08.448Z,19.90
2022-09-26T13:43:52.178Z,19.92
2022-09-26T13:47:28.541Z,19.87
2022-09-26T13:51:07.437Z,19.86
2022-09-26T13:54:44.311Z,19.94
2022-09-26T13:58:26.819Z,20.06
2022-09-26T14:02:20.429Z,20.21
2022-09-26T14:06:08.417Z,20.30
2022-09-26T14:09:55.993Z,20.21
2022-09-26T14:13:37.217Z,19.99
2022-09-26T14:17:26.426Z,19.78
2022-09-26T14:21:16.226Z,19.54
2022-09-26T14:24:44.400Z,19.30
2022-09-26T14:28:31.987Z,19.11
2022-09-26T14:32:05.560Z,18.95
2022-09-26T14:35:35.554Z,18.82
2022-09-26T14:39:03.141Z,18.71
2022-09-26T14:42:34.486Z,18.61
2022-09-26T14:46:07.193Z,18.49
2022-09-26T14:49:32.762Z,18.36
2022-09-26T14:53:03.414Z,18.21
2022-09-26T14:56:46.772Z,18.11
2022-09-26T15:00:42.856Z,18.00
2022-09-26T15:04:18.444Z,17.88
2022-09-26T15:07:50.667Z,17.77
2022-09-26T15:11:28.272Z,17.64
2022-09-26T15:15:04.962Z,17.51
2022-09-26T15:18:43.147Z,17.39
2022-09-26T15:22:15.780Z,17.28
2022-09-26T15:25:42.704Z,17.17
2022-09-26T15:29:13.534Z,17.07
2022-09-26T15:32:41.995Z,16.99
2022-09-26T15:36:16.816Z,16.89
2022-09-26T15:39:45.689Z,16.80
2022-09-26T15:43:20.713Z,16.72
2022-09-26T15:46:49.730Z,16.62
2022-09-26T15:50:23.302Z,16.55
2022-09-26T15:53:49.832Z,16.48
2022-09-26T15:57:17.250Z,16.38
2022-09-26T16:00:54.774Z,16.29
2022-09-26T16:04:27.404Z,16.21
2022-09-26T16:07:56.686Z,16.14
2022-09-26T16:11:24.107Z,16.08
2022-09-26T16:14:55.027Z,16.04
2022-09-26T16:18:28.638Z,16.00
2022-09-26T16:21:59.890Z,15.95
2022-09-26T16:25:35.852Z,15.92
2022-09-26T16:29:06.797Z,15.88
2022-09-26T16:32:35.457Z,15.86
2022-09-26T16:36:15.649Z,15.85
2022-09-26T16:39:44.246Z,15.85
2022-09-26T16:43:22.012Z,15.85
2022-09-26T16:46:54.115Z,15.87
2022-09-26T16:50:30.138Z,15.85
2022-09-26T16:54:01.082Z,15.79
2022-09-26T16:57:29.678Z,15.74
2022-09-26T17:01:14.079Z,15.68
2022-09-26T17:04:41.386Z,15.60
2022-09-26T17:08:11.015Z,15.54
2022-09-26T17:11:39.036Z,15.48
2022-09-26T17:15:20.924Z,15.43
2022-09-26T17:18:47.962Z,15.37
2022-09-26T17:22:17.697Z,15.32
2022-09-26T17:25:54.137Z,15.27
2022-09-26T17:29:33.644Z,15.22
2022-09-26T17:33:01.034Z,15.19
2022-09-26T17:36:31.015Z,15.17
2022-09-26T17:40:07.272Z,15.15
2022-09-26T17:43:37.602Z,15.15
2022-09-26T17:47:07.523Z,15.16
2022-09-26T17:50:37.850Z,15.17
2022-09-26T17:54:07.512Z,15.17
2022-09-26T17:57:40.918Z,15.15
2022-09-26T18:01:14.200Z,15.14
2022-09-26T18:04:42.859Z,15.12
2022-09-26T18:08:18.038Z,15.10
2022-09-26T18:11:48.957Z,15.06
2022-09-26T18:15:21.620Z,15.02
2022-09-26T18:18:57.176Z,14.97
2022-09-26T18:22:32.833Z,14.94
2022-09-26T18:26:13.887Z,14.89
2022-09-26T18:29:48.799Z,14.85
2022-09-26T18:33:19.833Z,14.80
2022-09-26T18:36:49.332Z,14.78
2022-09-26T18:40:19.632Z,14.75
2022-09-26T18:43:51.369Z,14.75
2022-09-26T18:47:23.291Z,14.73
2022-09-26T18:50:51.530Z,14.74
2022-09-26T18:54:31.026Z,14.75
2022-09-26T18:58:15.993Z,14.75
2022-09-26T19:01:45.581Z,14.72
2022-09-26T19:05:18.592Z,14.72
2022-09-26T19:08:48.096Z,14.71
2022-09-26T19:12:17.037Z,14.69
2022-09-26T19:15:44.503Z,14.64
2022-09-26T19:19:12.599Z,14.61
2022-09-26T19:22:39.806Z,14.57
2022-09-26T19:26:09.544Z,14.54
2022-09-26T19:29:42.058Z,14.50
2022-09-26T19:33:12.955Z,14.45
2022-09-26T19:36:40.642Z,14.40
2022-09-26T19:40:16.051Z,14.36
2022-09-26T19:43:43.014Z,14.30
2022-09-26T19:47:12.438Z,14.28
2022-09-26T19:50:41.332Z,14.29
2022-09-26T19:54:11.704Z,14.27
2022-09-26T19:57:38.813Z,14.28
2022-09-26T20:01:15.745Z,14.28
2022-09-26T20:04:43.216Z,14.22
2022-09-26T20:08:14.578Z,14.16
2022-09-26T20:11:41.575Z,14.12
2022-09-26T20:15:09.910Z,14.04
2022-09-26T20:18:39.110Z,13.93
2022-09-26T20:22:08.102Z,13.84
2022-09-26T20:25:38.249Z,13.75
2022-09-26T20:29:05.673Z,13.60
2022-09-26T20:32:32.857Z,13.45
2022-09-26T20:36:04.103Z,13.33
2022-09-26T20:39:30.926Z,13.24
2022-09-26T20:43:04.007Z,13.14
2022-09-26T20:46:33.881Z,13.07
2022-09-26T20:50:03.796Z,12.99
2022-09-26T20:53:30.515Z,12.93
2022-09-26T20:56:58.608Z,12.88
2022-09-26T21:00:25.377Z,12.84
2022-09-26T21:03:55.442Z,12.83
2022-09-26T21:07:22.682Z,12.79
2022-09-26T21:10:49.980Z,12.72
2022-09-26T21:14:16.993Z,12.61
2022-09-26T21:17:46.729Z,12.50
2022-09-26T21:21:22.568Z,12.39
2022-09-26T21:25:23.770Z,12.27
2022-09-26T21:28:51.884Z,12.16
2022-09-26T21:32:25.036Z,12.05
2022-09-26T21:35:53.038Z,11.97
2022-09-26T21:39:21.545Z,11.89
2022-09-26T21:42:52.032Z,11.80
2022-09-26T21:46:19.330Z,11.75
2022-09-26T21:49:46.818Z,11.71
2022-09-26T21:53:19.616Z,11.68
2022-09-26T21:56:50.351Z,11.65
2022-09-26T22:00:20.171Z,11.58
2022-09-26T22:03:46.969Z,11.53
2022-09-26T22:07:14.292Z,11.49
2022-09-26T22:10:41.327Z,11.43
2022-09-26T22:14:08.632Z,11.38
2022-09-26T22:17:35.548Z,11.34
2022-09-26T22:21:05.103Z,11.26
2022-09-26T22:24:33.138Z,11.17
2022-09-26T22:28:00.300Z,11.07
2022-09-26T22:31:27.530Z,10.99
2022-09-26T22:34:54.252Z,10.91
2022-09-26T22:38:21.195Z,10.83
2022-09-26T22:41:47.954Z,10.77
2022-09-26T22:45:18.482Z,10.72
2022-09-26T22:48:47.444Z,10.68
2022-09-26T22:52:14.760Z,10.67
2022-09-26T22:55:41.534Z,10.65
2022-09-26T22:59:08.490Z,10.65
2022-09-26T23:02:35.332Z,10.66
2022-09-26T23:06:02.446Z,10.66
2022-09-26T23:09:29.757Z,10.64
2022-09-26T23:12:57.085Z,10.60
2022-09-26T23:16:26.161Z,10.55
2022-09-26T23:19:53.233Z,10.51
2022-09-26T23:23:20.023Z,10.45
2022-09-26T23:26:46.613Z,10.38
2022-09-26T23:30:16.090Z,10.32
2022-09-26T23:33:42.527Z,10.24
2022-09-26T23:37:09.218Z,10.18
2022-09-26T23:40:38.004Z,10.14
2022-09-26T23:44:05.612Z,10.10
2022-09-26T23:47:32.929Z,10.07
2022-09-26T23:50:59.851Z,10.06
2022-09-26T23:54:26.955Z,10.06
2022-09-26T23:57:53.328Z,10.07
